WetterOnline ( http://www.wetteronline.de )

Wetter aktuell Denkendorf

Aktuelles Wetter: Gelbelsee (539m)

6-stündlich | Neueste Meldungen
Ortszeit Temperatur Wetter
Fr, 23.02. 7:00 -6.4° C bedeckt
Fr, 23.02. 1:00 -5.0° C wolkenlos
Do, 22.02. 19:00 -2.6° C bedeckt
Do, 22.02. 13:00 -2.3° C wolkig
Do, 22.02. 7:00 -5.7° C wolkig
Do, 22.02. 1:00 -4.7° C wolkenlos
Mi, 21.02. 19:00 -1.1° C leicht bewölkt
Mi, 21.02. 13:00 -0.5° C wolkenlos
Ortszeit Temperatur Wetter
Fr, 23.02. 7:00 -6.4° C bedeckt
Fr, 23.02. 6:50 -6.4° C bedeckt
Fr, 23.02. 6:40 -6.4° C bedeckt
Fr, 23.02. 6:30 -6.6° C wolkig
Fr, 23.02. 6:20 -6.6° C wolkig
Fr, 23.02. 6:10 -6.6° C leicht bewölkt
Fr, 23.02. 6:00 -6.6° C wolkenlos
Fr, 23.02. 5:30 -6.4° C wolkenlos
Fr, 23.02. 5:00 -6.4° C wolkenlos
Fr, 23.02. 4:30 -6.4° C fast wolkenlos
Fr, 23.02. 4:00 -6.3° C wolkenlos
Ortszeit Relative Feuchte Sichtweite
Fr, 23.02. 7:00 79% 10 km
Fr, 23.02. 1:00 68% 26 km
Do, 22.02. 19:00 61% 22 km
Do, 22.02. 13:00 60% 7 km
Do, 22.02. 7:00 79% 7 km
Do, 22.02. 1:00 75% 11 km
Mi, 21.02. 19:00 62% 16 km
Mi, 21.02. 13:00 62% 8 km
Ortszeit Relative Feuchte Sichtweite
Fr, 23.02. 7:00 79% 10 km
Fr, 23.02. 6:50 79% -
Fr, 23.02. 6:40 79% -
Fr, 23.02. 6:30 79% 10 km
Fr, 23.02. 6:20 79% -
Fr, 23.02. 6:10 78% -
Fr, 23.02. 6:00 79% 10 km
Fr, 23.02. 5:30 78% 12 km
Fr, 23.02. 5:00 77% 12 km
Fr, 23.02. 4:30 77% 12 km
Fr, 23.02. 4:00 76% 12 km
Ortszeit Niederschlagsmenge Niederschlagsart
Fr, 23.02. 7:00 0.0 l/m2 in 12 Std. -
Fr, 23.02. 1:00 0.0 l/m2 in 6 Std. -
Do, 22.02. 19:00 0.0 l/m2 in 12 Std. -
Do, 22.02. 13:00 0.0 l/m2 in 6 Std. -
Do, 22.02. 7:00 0.0 l/m2 in 12 Std. -
Do, 22.02. 1:00 0.0 l/m2 in 6 Std. -
Mi, 21.02. 19:00 0.0 l/m2 in 12 Std. -
Mi, 21.02. 13:00 0.0 l/m2 in 6 Std. -
Ortszeit Niederschlagsmenge Niederschlagsart
Fr, 23.02. 7:00 0.0 l/m2 in 1 Std. -
Fr, 23.02. 6:50 keine Meldung -
Fr, 23.02. 6:40 keine Meldung -
Fr, 23.02. 6:30 0.0 l/m2 in 1 Std. -
Fr, 23.02. 6:20 keine Meldung -
Fr, 23.02. 6:10 keine Meldung -
Fr, 23.02. 6:00 0.0 l/m2 in 1 Std. -
Fr, 23.02. 5:30 0.0 l/m2 in 1 Std. -
Fr, 23.02. 5:00 0.0 l/m2 in 1 Std. -
Fr, 23.02. 4:30 0.0 l/m2 in 1 Std. -
Fr, 23.02. 4:00 0.0 l/m2 in 1 Std. -
Ortszeit Stärke Spitze Richtung
km/h Bft. km/h Grad Sektor
Fr, 23.02. 7:00 13 3 22 50° NO
Fr, 23.02. 1:00 11 2 36 50° NO
Do, 22.02. 19:00 18 3 47 60° NO
Do, 22.02. 13:00 25 4 43 40° NO
Do, 22.02. 7:00 20 4 37 50° NO
Do, 22.02. 1:00 14 3 36 50° NO
Mi, 21.02. 19:00 13 3 30 50° NO
Mi, 21.02. 13:00 13 3 28 50° NO
Ortszeit Stärke Spitze Richtung
km/h Bft. km/h Grad Sektor
Fr, 23.02. 7:00 13 3 19 50° NO
Fr, 23.02. 6:50 13 3 - 50° NO
Fr, 23.02. 6:40 14 3 - 50° NO
Fr, 23.02. 6:30 13 3 19 50° NO
Fr, 23.02. 6:20 13 3 - 50° NO
Fr, 23.02. 6:10 13 3 - 50° NO
Fr, 23.02. 6:00 14 3 22 50° NO
Fr, 23.02. 5:30 15 3 22 50° NO
Fr, 23.02. 5:00 11 2 18 40° NO
Fr, 23.02. 4:30 11 2 17 40° NO
Fr, 23.02. 4:00 13 3 19 50° NO
Ortszeit Untergrenze Bedeckung Gattung
total tief tief mittel hoch
Fr, 23.02. 7:00 870 m 8/8 8/8 - - -
Fr, 23.02. 1:00 - 0/8 0/8 - - -
Do, 22.02. 19:00 1230 m 8/8 8/8 - - -
Do, 22.02. 13:00 1800 m 8/8 7/8 - - -
Do, 22.02. 7:00 3300 m 5/8 5/8 - - -
Do, 22.02. 1:00 - 0/8 0/8 - - -
Mi, 21.02. 19:00 3000 m 4/8 4/8 - - -
Mi, 21.02. 13:00 - 0/8 0/8 - - -
Ortszeit Bedeckungsgrad in Achtel und Wolkenuntergrenze
Fr, 23.02. 7:00 8(870m)
Fr, 23.02. 6:50 8(870m)
Fr, 23.02. 6:40 8(900m)
Fr, 23.02. 6:30 5(960m)
Fr, 23.02. 6:20 5(960m)
Fr, 23.02. 6:10 2(990m)
Fr, 23.02. 6:00 1(990m)
Fr, 23.02. 5:30 keine Wolken
Fr, 23.02. 5:00 keine Wolken
Fr, 23.02. 4:30 1(1020m)
Fr, 23.02. 4:00 keine Wolken
Ortszeit Luftdruck NN (hPa) Tendenz (hPa in 3 Std.)
Fr, 23.02. 7:00 1019 + 0,2
Fr, 23.02. 1:00 1020 - 0,1
Do, 22.02. 19:00 1019 + 0,8
Do, 22.02. 13:00 1019 - 0,4
Do, 22.02. 7:00 1020 - 0,2
Do, 22.02. 1:00 1021 - 0,7
Mi, 21.02. 19:00 1021 + 0,8
Mi, 21.02. 13:00 1021 + 0,1
Ortszeit Luftdruck NN (hPa) Tendenz (hPa in 3 Std.)
Fr, 23.02. 7:00 1019 + 0,2
Fr, 23.02. 6:50 1019 keine Meldung
Fr, 23.02. 6:40 1019 keine Meldung
Fr, 23.02. 6:30 1019 - 0,1
Fr, 23.02. 6:20 1019 keine Meldung
Fr, 23.02. 6:10 1019 keine Meldung
Fr, 23.02. 6:00 1019 - 0,3
Fr, 23.02. 5:30 1019 - 0,8
Fr, 23.02. 5:00 1019 - 0,8
Fr, 23.02. 4:30 1019 - 0,8
Fr, 23.02. 4:00 1019 - 1,1
Ortszeit Schneehöhe (cm)
Fr, 23.02. 7:00 5
Fr, 23.02. 1:00 5
Do, 22.02. 19:00 5
Do, 22.02. 13:00 5
Do, 22.02. 7:00 5
Do, 22.02. 1:00 5
Mi, 21.02. 19:00 5
Mi, 21.02. 13:00 5
Ortszeit Schneehöhe (cm)
Fr, 23.02. 7:00 5
Fr, 23.02. 6:50 5
Fr, 23.02. 6:40 5
Fr, 23.02. 6:30 5
Fr, 23.02. 6:20 5
Fr, 23.02. 6:10 5
Fr, 23.02. 6:00 5
Fr, 23.02. 5:30 5
Fr, 23.02. 5:00 5
Fr, 23.02. 4:30 5
Fr, 23.02. 4:00 5
Link zu dieser Seite / Seite empfehlen

Das Wetter in ...